sensor_id;sensor_type;location;lat;lon;timestamp;pressure;altitude;pressure_sealevel;temperature;humidity
69855;BME280;57146;48.140;16.304;2022-11-24T00:01:06;98497.78;;;4.87;88.16
69855;BME280;57146;48.140;16.304;2022-11-24T00:03:34;98497.22;;;4.90;88.19
69855;BME280;57146;48.140;16.304;2022-11-24T00:06:13;98503.59;;;4.84;89.19
69855;BME280;57146;48.140;16.304;2022-11-24T00:08:42;98506.19;;;4.84;88.70
69855;BME280;57146;48.140;16.304;2022-11-24T00:11:14;98510.34;;;4.85;89.00
69855;BME280;57146;48.140;16.304;2022-11-24T00:13:42;98500.69;;;4.86;88.89
69855;BME280;57146;48.140;16.304;2022-11-24T00:18:38;98501.88;;;4.93;88.69
69855;BME280;57146;48.140;16.304;2022-11-24T00:21:05;98496.47;;;4.90;88.81
69855;BME280;57146;48.140;16.304;2022-11-24T00:23:35;98505.91;;;4.86;88.83
69855;BME280;57146;48.140;16.304;2022-11-24T00:26:11;98508.81;;;4.84;89.22
69855;BME280;57146;48.140;16.304;2022-11-24T00:28:40;98515.34;;;4.82;89.75
69855;BME280;57146;48.140;16.304;2022-11-24T00:31:23;98519.78;;;4.81;89.73
69855;BME280;57146;48.140;16.304;2022-11-24T00:33:52;98531.00;;;4.82;89.67
69855;BME280;57146;48.140;16.304;2022-11-24T00:36:20;98539.59;;;4.82;89.87
69855;BME280;57146;48.140;16.304;2022-11-24T00:38:54;98535.13;;;4.83;89.87
69855;BME280;57146;48.140;16.304;2022-11-24T00:41:23;98538.81;;;4.82;90.08
69855;BME280;57146;48.140;16.304;2022-11-24T00:43:51;98542.47;;;4.80;90.34
69855;BME280;57146;48.140;16.304;2022-11-24T00:46:18;98537.28;;;4.80;89.52
69855;BME280;57146;48.140;16.304;2022-11-24T00:48:46;98546.13;;;4.79;90.13
69855;BME280;57146;48.140;16.304;2022-11-24T00:51:14;98555.00;;;4.78;90.50
69855;BME280;57146;48.140;16.304;2022-11-24T00:53:42;98553.47;;;4.77;90.55
69855;BME280;57146;48.140;16.304;2022-11-24T00:56:10;98556.06;;;4.77;90.50
69855;BME280;57146;48.140;16.304;2022-11-24T00:58:39;98554.72;;;4.80;90.58
69855;BME280;57146;48.140;16.304;2022-11-24T01:01:11;98563.91;;;4.77;91.42
69855;BME280;57146;48.140;16.304;2022-11-24T01:03:41;98558.16;;;4.75;91.72
69855;BME280;57146;48.140;16.304;2022-11-24T01:06:10;98560.56;;;4.72;92.11
69855;BME280;57146;48.140;16.304;2022-11-24T01:08:39;98564.22;;;4.71;92.29
69855;BME280;57146;48.140;16.304;2022-11-24T01:11:14;98566.06;;;4.70;92.35
69855;BME280;57146;48.140;16.304;2022-11-24T01:13:46;98564.78;;;4.68;92.27
69855;BME280;57146;48.140;16.304;2022-11-24T01:16:16;98566.09;;;4.65;92.74
69855;BME280;57146;48.140;16.304;2022-11-24T01:18:44;98572.38;;;4.64;93.18
69855;BME280;57146;48.140;16.304;2022-11-24T01:21:12;98572.94;;;4.61;93.39
69855;BME280;57146;48.140;16.304;2022-11-24T01:23:39;98578.44;;;4.60;93.70
69855;BME280;57146;48.140;16.304;2022-11-24T01:26:09;98580.81;;;4.56;93.99
69855;BME280;57146;48.140;16.304;2022-11-24T01:28:37;98578.97;;;4.56;94.20
69855;BME280;57146;48.140;16.304;2022-11-24T01:31:13;98586.03;;;4.56;94.39
69855;BME280;57146;48.140;16.304;2022-11-24T01:33:40;98589.66;;;4.55;94.36
69855;BME280;57146;48.140;16.304;2022-11-24T01:36:07;98586.28;;;4.54;94.81
69855;BME280;57146;48.140;16.304;2022-11-24T01:38:34;98594.09;;;4.54;94.19
69855;BME280;57146;48.140;16.304;2022-11-24T01:41:06;98594.41;;;4.53;94.59
69855;BME280;57146;48.140;16.304;2022-11-24T01:43:34;98598.84;;;4.52;95.05
69855;BME280;57146;48.140;16.304;2022-11-24T01:46:25;98603.53;;;4.50;95.31
69855;BME280;57146;48.140;16.304;2022-11-24T01:49:14;98603.53;;;4.50;95.89
69855;BME280;57146;48.140;16.304;2022-11-24T01:51:47;98608.50;;;4.47;96.11
69855;BME280;57146;48.140;16.304;2022-11-24T01:54:27;98608.28;;;4.43;96.71
69855;BME280;57146;48.140;16.304;2022-11-24T01:57:13;98608.28;;;4.43;96.17
69855;BME280;57146;48.140;16.304;2022-11-24T01:59:45;98602.59;;;4.41;95.95
69855;BME280;57146;48.140;16.304;2022-11-24T02:02:20;98605.19;;;4.41;96.39
69855;BME280;57146;48.140;16.304;2022-11-24T02:04:48;98604.41;;;4.41;96.38
69855;BME280;57146;48.140;16.304;2022-11-24T02:07:16;98599.19;;;4.41;96.15
69855;BME280;57146;48.140;16.304;2022-11-24T02:09:50;98599.47;;;4.39;95.80
69855;BME280;57146;48.140;16.304;2022-11-24T02:12:21;98607.84;;;4.36;96.64
69855;BME280;57146;48.140;16.304;2022-11-24T02:14:49;98602.13;;;4.34;96.24
69855;BME280;57146;48.140;16.304;2022-11-24T02:17:19;98602.13;;;4.34;95.99
69855;BME280;57146;48.140;16.304;2022-11-24T02:20:07;98603.69;;;4.35;95.25
69855;BME280;57146;48.140;16.304;2022-11-24T02:23:09;98600.00;;;4.36;94.41
69855;BME280;57146;48.140;16.304;2022-11-24T02:28:14;98596.63;;;4.36;94.72
69855;BME280;57146;48.140;16.304;2022-11-24T02:30:43;98598.97;;;4.37;94.07
69855;BME280;57146;48.140;16.304;2022-11-24T02:33:10;98601.56;;;4.37;94.22
69855;BME280;57146;48.140;16.304;2022-11-24T02:35:38;98593.75;;;4.37;93.43
69855;BME280;57146;48.140;16.304;2022-11-24T02:38:11;98603.13;;;4.38;93.31
69855;BME280;57146;48.140;16.304;2022-11-24T02:40:40;98600.78;;;4.37;94.24
69855;BME280;57146;48.140;16.304;2022-11-24T02:43:13;98600.00;;;4.36;93.33
69855;BME280;57146;48.140;16.304;2022-11-24T02:45:41;98595.88;;;4.35;93.67
69855;BME280;57146;48.140;16.304;2022-11-24T02:48:08;98603.44;;;4.31;93.93
69855;BME280;57146;48.140;16.304;2022-11-24T02:50:36;98604.22;;;4.32;93.52
69855;BME280;57146;48.140;16.304;2022-11-24T02:53:03;98601.06;;;4.35;92.40
69855;BME280;57146;48.140;16.304;2022-11-24T02:55:30;98608.88;;;4.35;92.17
69855;BME280;57146;48.140;16.304;2022-11-24T02:57:57;98601.06;;;4.35;91.93
69855;BME280;57146;48.140;16.304;2022-11-24T03:00:25;98597.69;;;4.35;91.72
69855;BME280;57146;48.140;16.304;2022-11-24T03:02:52;98605.22;;;4.36;91.19
69855;BME280;57146;48.140;16.304;2022-11-24T03:05:19;98600.31;;;4.35;90.96
69855;BME280;57146;48.140;16.304;2022-11-24T03:07:45;98605.50;;;4.35;91.08
69855;BME280;57146;48.140;16.304;2022-11-24T03:10:13;98608.38;;;4.33;90.21
69855;BME280;57146;48.140;16.304;2022-11-24T03:12:39;98603.44;;;4.31;90.32
69855;BME280;57146;48.140;16.304;2022-11-24T03:15:07;98598.50;;;4.30;90.48
69855;BME280;57146;48.140;16.304;2022-11-24T03:17:34;98607.66;;;4.27;90.86
69855;BME280;57146;48.140;16.304;2022-11-24T03:20:01;98605.31;;;4.26;90.39
69855;BME280;57146;48.140;16.304;2022-11-24T03:22:31;98612.34;;;4.25;90.09
69855;BME280;57146;48.140;16.304;2022-11-24T03:24:57;98604.06;;;4.23;89.88
69855;BME280;57146;48.140;16.304;2022-11-24T03:27:24;98614.72;;;4.22;90.10
69855;BME280;57146;48.140;16.304;2022-11-24T03:29:51;98612.41;;;4.20;89.89
69855;BME280;57146;48.140;16.304;2022-11-24T03:32:18;98622.06;;;4.20;89.28
69855;BME280;57146;48.140;16.304;2022-11-24T03:34:45;98619.19;;;4.16;89.64
69855;BME280;57146;48.140;16.304;2022-11-24T03:37:12;98618.72;;;4.14;89.89
69855;BME280;57146;48.140;16.304;2022-11-24T03:39:38;98611.94;;;4.13;89.54
69855;BME280;57146;48.140;16.304;2022-11-24T03:42:05;98619.75;;;4.13;89.19
69855;BME280;57146;48.140;16.304;2022-11-24T03:44:32;98621.06;;;4.11;89.31
69855;BME280;57146;48.140;16.304;2022-11-24T03:46:59;98620.06;;;4.06;89.23
69855;BME280;57146;48.140;16.304;2022-11-24T03:49:26;98636.22;;;4.03;89.78
69855;BME280;57146;48.140;16.304;2022-11-24T03:51:53;98628.41;;;4.03;89.81
69855;BME280;57146;48.140;16.304;2022-11-24T03:54:20;98628.41;;;4.03;89.90
69855;BME280;57146;48.140;16.304;2022-11-24T03:56:47;98635.22;;;3.99;89.98
69855;BME280;57146;48.140;16.304;2022-11-24T03:59:14;98639.91;;;3.97;89.81
69855;BME280;57146;48.140;16.304;2022-11-24T04:01:41;98635.00;;;3.96;89.83
69855;BME280;57146;48.140;16.304;2022-11-24T04:04:10;98644.63;;;3.95;90.18
69855;BME280;57146;48.140;16.304;2022-11-24T04:06:37;98651.38;;;3.96;90.17
69855;BME280;57146;48.140;16.304;2022-11-24T04:09:04;98649.84;;;3.95;90.99
69855;BME280;57146;48.140;16.304;2022-11-24T04:11:31;98646.19;;;3.96;90.22
69855;BME280;57146;48.140;16.304;2022-11-24T04:13:58;98650.63;;;3.96;90.99
69855;BME280;57146;48.140;16.304;2022-11-24T04:16:25;98647.72;;;3.97;90.88
69855;BME280;57146;48.140;16.304;2022-11-24T04:18:52;98648.00;;;3.96;91.24
69855;BME280;57146;48.140;16.304;2022-11-24T04:21:19;98655.28;;;3.99;90.35
69855;BME280;57146;48.140;16.304;2022-11-24T04:23:46;98656.59;;;3.96;90.70
69855;BME280;57146;48.140;16.304;2022-11-24T04:26:13;98659.97;;;3.97;91.22
69855;BME280;57146;48.140;16.304;2022-11-24T04:28:41;98668.56;;;3.97;90.74
69855;BME280;57146;48.140;16.304;2022-11-24T04:31:08;98673.78;;;3.97;91.02
69855;BME280;57146;48.140;16.304;2022-11-24T04:33:35;98675.59;;;3.97;90.93
69855;BME280;57146;48.140;16.304;2022-11-24T04:36:02;98679.25;;;3.96;90.84
69855;BME280;57146;48.140;16.304;2022-11-24T04:38:29;98686.78;;;3.97;90.17
69855;BME280;57146;48.140;16.304;2022-11-24T04:41:16;98689.69;;;3.96;90.78
69855;BME280;57146;48.140;16.304;2022-11-24T04:43:43;98692.53;;;3.99;90.30
69855;BME280;57146;48.140;16.304;2022-11-24T04:46:10;98694.34;;;3.99;90.20
69855;BME280;57146;48.140;16.304;2022-11-24T04:48:37;98699.28;;;4.00;90.25
69855;BME280;57146;48.140;16.304;2022-11-24T04:51:05;98706.31;;;4.00;89.79
69855;BME280;57146;48.140;16.304;2022-11-24T04:53:32;98709.69;;;4.00;90.33
69855;BME280;57146;48.140;16.304;2022-11-24T04:56:03;98705.78;;;3.98;90.59
69855;BME280;57146;48.140;16.304;2022-11-24T04:58:31;98715.97;;;3.99;90.42
69855;BME280;57146;48.140;16.304;2022-11-24T05:00:58;98709.69;;;4.00;89.98
69855;BME280;57146;48.140;16.304;2022-11-24T05:03:25;98712.59;;;3.99;89.94
69855;BME280;57146;48.140;16.304;2022-11-24T05:05:52;98711.00;;;3.98;90.21
69855;BME280;57146;48.140;16.304;2022-11-24T05:08:19;98722.19;;;3.98;89.57
69855;BME280;57146;48.140;16.304;2022-11-24T05:10:45;98725.84;;;3.97;90.30
69855;BME280;57146;48.140;16.304;2022-11-24T05:13:13;98722.75;;;3.95;90.09
69855;BME280;57146;48.140;16.304;2022-11-24T05:15:40;98725.09;;;3.97;89.99
69855;BME280;57146;48.140;16.304;2022-11-24T05:18:11;98725.34;;;3.95;90.29
69855;BME280;57146;48.140;16.304;2022-11-24T05:20:38;98731.59;;;3.94;90.04
69855;BME280;57146;48.140;16.304;2022-11-24T05:23:07;98733.19;;;3.95;90.12
69855;BME280;57146;48.140;16.304;2022-11-24T05:25:34;98736.03;;;3.94;90.33
69855;BME280;57146;48.140;16.304;2022-11-24T05:28:02;98732.13;;;3.91;90.70
69855;BME280;57146;48.140;16.304;2022-11-24T05:30:30;98733.19;;;3.90;90.52
69855;BME280;57146;48.140;16.304;2022-11-24T05:32:57;98749.81;;;3.94;90.69
69855;BME280;57146;48.140;16.304;2022-11-24T05:35:24;98746.97;;;3.96;90.25
69855;BME280;57146;48.140;16.304;2022-11-24T05:37:52;98745.63;;;3.98;90.47
69855;BME280;57146;48.140;16.304;2022-11-24T05:40:19;98748.00;;;4.00;90.42
69855;BME280;57146;48.140;16.304;2022-11-24T05:42:46;98747.69;;;4.01;89.74
69855;BME280;57146;48.140;16.304;2022-11-24T05:45:16;98751.09;;;4.02;89.96
69855;BME280;57146;48.140;16.304;2022-11-24T05:47:44;98750.28;;;4.06;89.82
69855;BME280;57146;48.140;16.304;2022-11-24T05:50:13;98754.44;;;4.07;89.27
69855;BME280;57146;48.140;16.304;2022-11-24T05:52:40;98759.94;;;4.06;89.80
69855;BME280;57146;48.140;16.304;2022-11-24T05:55:08;98766.94;;;4.05;89.54
69855;BME280;57146;48.140;16.304;2022-11-24T05:57:36;98777.91;;;4.07;89.22
69855;BME280;57146;48.140;16.304;2022-11-24T06:00:07;98777.13;;;4.07;89.32
69855;BME280;57146;48.140;16.304;2022-11-24T06:02:40;98776.84;;;4.08;89.21
69855;BME280;57146;48.140;16.304;2022-11-24T06:05:07;98790.63;;;4.09;89.37
69855;BME280;57146;48.140;16.304;2022-11-24T06:07:34;98791.41;;;4.15;88.55
69855;BME280;57146;48.140;16.304;2022-11-24T06:10:02;98790.63;;;4.14;88.21
69855;BME280;57146;48.140;16.304;2022-11-24T06:12:32;98794.00;;;4.15;88.60
69855;BME280;57146;48.140;16.304;2022-11-24T06:14:59;98795.56;;;4.16;89.15
69855;BME280;57146;48.140;16.304;2022-11-24T06:17:26;98790.63;;;4.14;88.65
69855;BME280;57146;48.140;16.304;2022-11-24T06:19:52;98798.16;;;4.16;88.54
69855;BME280;57146;48.140;16.304;2022-11-24T06:22:19;98805.44;;;4.19;88.92
69855;BME280;57146;48.140;16.304;2022-11-24T06:24:46;98805.97;;;4.21;88.32
69855;BME280;57146;48.140;16.304;2022-11-24T06:27:13;98802.06;;;4.18;87.83
69855;BME280;57146;48.140;16.304;2022-11-24T06:29:40;98812.97;;;4.25;90.45
69855;BME280;57146;48.140;16.304;2022-11-24T06:32:07;98813.50;;;4.22;88.33
69855;BME280;57146;48.140;16.304;2022-11-24T06:34:35;98819.00;;;4.21;88.20
69855;BME280;57146;48.140;16.304;2022-11-24T06:37:02;98825.22;;;4.25;88.05
69855;BME280;57146;48.140;16.304;2022-11-24T06:39:29;98826.78;;;4.26;88.07
69855;BME280;57146;48.140;16.304;2022-11-24T06:41:56;98821.56;;;4.26;88.09
69855;BME280;57146;48.140;16.304;2022-11-24T06:44:23;98828.06;;;4.28;87.71
69855;BME280;57146;48.140;16.304;2022-11-24T06:46:50;98823.38;;;4.30;88.08
69855;BME280;57146;48.140;16.304;2022-11-24T06:49:17;98830.38;;;4.35;87.89
69855;BME280;57146;48.140;16.304;2022-11-24T06:51:44;98822.81;;;4.39;87.69
69855;BME280;57146;48.140;16.304;2022-11-24T06:54:16;98827.19;;;4.43;87.52
69855;BME280;57146;48.140;16.304;2022-11-24T06:56:43;98835.25;;;4.47;87.54
69855;BME280;57146;48.140;16.304;2022-11-24T06:59:19;98833.94;;;4.49;87.56
69855;BME280;57146;48.140;16.304;2022-11-24T07:01:46;98839.41;;;4.53;86.78
69855;BME280;57146;48.140;16.304;2022-11-24T07:04:13;98844.84;;;4.56;86.84
69855;BME280;57146;48.140;16.304;2022-11-24T07:06:41;98842.22;;;4.62;86.84
69855;BME280;57146;48.140;16.304;2022-11-24T07:09:10;98860.97;;;4.64;86.45
69855;BME280;57146;48.140;16.304;2022-11-24T07:11:38;98861.22;;;4.67;86.48
69855;BME280;57146;48.140;16.304;2022-11-24T07:14:06;98856.25;;;4.71;86.13
69855;BME280;57146;48.140;16.304;2022-11-24T07:16:33;98862.75;;;4.73;86.20
69855;BME280;57146;48.140;16.304;2022-11-24T07:19:00;98858.03;;;4.75;86.06
69855;BME280;57146;48.140;16.304;2022-11-24T07:21:28;98866.09;;;4.79;85.91
69855;BME280;57146;48.140;16.304;2022-11-24T07:23:56;98869.22;;;4.81;85.82
69855;BME280;57146;48.140;16.304;2022-11-24T07:26:24;98874.13;;;4.88;85.36
69855;BME280;57146;48.140;16.304;2022-11-24T07:28:51;98877.50;;;4.88;86.01
69855;BME280;57146;48.140;16.304;2022-11-24T07:31:20;98876.19;;;4.91;85.24
69855;BME280;57146;48.140;16.304;2022-11-24T07:33:48;98881.63;;;4.94;85.23
69855;BME280;57146;48.140;16.304;2022-11-24T07:36:15;98871.72;;;4.96;85.09
69855;BME280;57146;48.140;16.304;2022-11-24T07:38:43;98884.47;;;4.98;85.30
69855;BME280;57146;48.140;16.304;2022-11-24T07:41:10;98886.31;;;4.97;85.73
69855;BME280;57146;48.140;16.304;2022-11-24T07:43:39;98886.53;;;5.01;85.93
69855;BME280;57146;48.140;16.304;2022-11-24T07:46:09;98891.50;;;5.02;85.55
69855;BME280;57146;48.140;16.304;2022-11-24T07:48:37;98903.19;;;5.05;85.76
69855;BME280;57146;48.140;16.304;2022-11-24T07:51:05;98896.66;;;5.08;85.66
69855;BME280;57146;48.140;16.304;2022-11-24T07:53:32;98905.28;;;5.08;86.31
69855;BME280;57146;48.140;16.304;2022-11-24T07:56:01;98902.91;;;5.12;86.16
69855;BME280;57146;48.140;16.304;2022-11-24T07:58:31;98903.41;;;5.14;86.42
69855;BME280;57146;48.140;16.304;2022-11-24T08:01:07;98903.41;;;5.14;87.57
69855;BME280;57146;48.140;16.304;2022-11-24T08:03:34;98907.31;;;5.16;86.88
69855;BME280;57146;48.140;16.304;2022-11-24T08:06:01;98915.41;;;5.15;88.34
69855;BME280;57146;48.140;16.304;2022-11-24T08:08:48;98918.78;;;5.15;88.86
69855;BME280;57146;48.140;16.304;2022-11-24T08:11:16;98920.91;;;5.13;89.59
69855;BME280;57146;48.140;16.304;2022-11-24T08:13:43;98918.06;;;5.10;89.77
69855;BME280;57146;48.140;16.304;2022-11-24T08:16:12;98925.59;;;5.11;90.49
69855;BME280;57146;48.140;16.304;2022-11-24T08:18:40;98925.59;;;5.11;89.85
69855;BME280;57146;48.140;16.304;2022-11-24T08:21:12;98926.91;;;5.09;90.72
69855;BME280;57146;48.140;16.304;2022-11-24T08:23:39;98925.66;;;5.06;91.52
69855;BME280;57146;48.140;16.304;2022-11-24T08:26:11;98929.28;;;5.05;92.08
69855;BME280;57146;48.140;16.304;2022-11-24T08:28:39;98931.13;;;5.04;91.50
69855;BME280;57146;48.140;16.304;2022-11-24T08:31:17;98934.78;;;5.03;92.20
69855;BME280;57146;48.140;16.304;2022-11-24T08:33:45;98938.72;;;5.01;92.76
69855;BME280;57146;48.140;16.304;2022-11-24T08:36:14;98939.50;;;5.01;92.96
69855;BME280;57146;48.140;16.304;2022-11-24T08:38:42;98943.16;;;5.00;93.56
69855;BME280;57146;48.140;16.304;2022-11-24T08:41:13;98940.81;;;4.99;93.45
69855;BME280;57146;48.140;16.304;2022-11-24T08:43:40;98944.47;;;4.98;94.06
69855;BME280;57146;48.140;16.304;2022-11-24T08:46:10;98947.88;;;4.98;94.41
69855;BME280;57146;48.140;16.304;2022-11-24T08:48:38;98948.13;;;4.97;95.13
69855;BME280;57146;48.140;16.304;2022-11-24T08:51:09;98952.56;;;4.96;95.49
69855;BME280;57146;48.140;16.304;2022-11-24T08:53:37;98957.78;;;4.96;96.05
69855;BME280;57146;48.140;16.304;2022-11-24T08:56:06;98954.66;;;4.99;95.20
69855;BME280;57146;48.140;16.304;2022-11-24T08:58:34;98953.59;;;5.00;95.57
69855;BME280;57146;48.140;16.304;2022-11-24T09:03:31;98951.25;;;4.99;97.08
69855;BME280;57146;48.140;16.304;2022-11-24T09:05:58;98953.34;;;5.02;96.42
69855;BME280;57146;48.140;16.304;2022-11-24T09:08:24;98954.34;;;5.06;96.14
69855;BME280;57146;48.140;16.304;2022-11-24T09:10:51;98959.34;;;5.02;97.02
69855;BME280;57146;48.140;16.304;2022-11-24T09:13:18;98955.66;;;5.03;97.63
69855;BME280;57146;48.140;16.304;2022-11-24T09:15:45;98949.66;;;5.03;98.01
69855;BME280;57146;48.140;16.304;2022-11-24T09:18:12;98952.00;;;5.04;97.89
69855;BME280;57146;48.140;16.304;2022-11-24T09:20:39;98960.06;;;5.08;98.37
69855;BME280;57146;48.140;16.304;2022-11-24T09:23:23;98955.59;;;5.14;98.50
69855;BME280;57146;48.140;16.304;2022-11-24T09:25:50;98960.78;;;5.19;98.18
69855;BME280;57146;48.140;16.304;2022-11-24T09:28:17;98958.94;;;5.19;98.50
69855;BME280;57146;48.140;16.304;2022-11-24T09:30:44;98952.16;;;5.23;98.53
69855;BME280;57146;48.140;16.304;2022-11-24T09:33:11;98955.78;;;5.22;99.04
69855;BME280;57146;48.140;16.304;2022-11-24T09:35:37;98958.16;;;5.24;98.89
69855;BME280;57146;48.140;16.304;2022-11-24T09:38:04;98955.00;;;5.27;99.79
69855;BME280;57146;48.140;16.304;2022-11-24T09:40:31;98955.22;;;5.31;99.97
69855;BME280;57146;48.140;16.304;2022-11-24T09:43:02;98950.28;;;5.29;100.00
69855;BME280;57146;48.140;16.304;2022-11-24T09:45:51;98949.25;;;5.30;99.76
69855;BME280;57146;48.140;16.304;2022-11-24T09:48:52;98953.94;;;5.28;100.00
69855;BME280;57146;48.140;16.304;2022-11-24T09:51:22;98957.84;;;5.31;99.74
69855;BME280;57146;48.140;16.304;2022-11-24T09:53:55;98959.41;;;5.32;100.00
69855;BME280;57146;48.140;16.304;2022-11-24T09:56:30;98959.34;;;5.37;99.45
69855;BME280;57146;48.140;16.304;2022-11-24T09:59:08;98959.88;;;5.39;100.00
69855;BME280;57146;48.140;16.304;2022-11-24T10:01:39;98966.06;;;5.48;99.19
69855;BME280;57146;48.140;16.304;2022-11-24T10:04:16;98968.94;;;5.46;99.80
69855;BME280;57146;48.140;16.304;2022-11-24T10:06:58;98969.19;;;5.50;99.61
69855;BME280;57146;48.140;16.304;2022-11-24T10:09:44;98961.09;;;5.51;99.38
69855;BME280;57146;48.140;16.304;2022-11-24T10:12:46;98949.03;;;5.56;99.54
69855;BME280;57146;48.140;16.304;2022-11-24T10:21:21;98951.56;;;5.66;100.00
69855;BME280;57146;48.140;16.304;2022-11-24T10:27:00;98944.97;;;5.73;100.00
69855;BME280;57146;48.140;16.304;2022-11-24T10:31:55;98941.97;;;5.85;99.88
69855;BME280;57146;48.140;16.304;2022-11-24T10:34:34;98952.09;;;5.92;100.00
69855;BME280;57146;48.140;16.304;2022-11-24T10:37:13;98959.44;;;5.95;98.27
69855;BME280;57146;48.140;16.304;2022-11-24T10:42:27;98957.53;;;6.00;99.88
69855;BME280;57146;48.140;16.304;2022-11-24T10:45:02;98963.25;;;6.03;99.77
69855;BME280;57146;48.140;16.304;2022-11-24T10:47:34;98956.97;;;6.04;100.00
69855;BME280;57146;48.140;16.304;2022-11-24T10:52:37;98956.44;;;6.07;100.00
69855;BME280;57146;48.140;16.304;2022-11-24T10:55:07;98968.16;;;6.09;99.18
69855;BME280;57146;48.140;16.304;2022-11-24T10:57:37;98966.34;;;6.10;99.50
69855;BME280;57146;48.140;16.304;2022-11-24T11:00:29;98952.19;;;6.11;100.00
69855;BME280;57146;48.140;16.304;2022-11-24T11:03:32;98952.19;;;6.11;100.00
69855;BME280;57146;48.140;16.304;2022-11-24T11:06:10;98958.97;;;6.12;100.00
69855;BME280;57146;48.140;16.304;2022-11-24T11:08:39;98955.31;;;6.13;99.09
69855;BME280;57146;48.140;16.304;2022-11-24T11:11:18;98960.25;;;6.14;100.00
69855;BME280;57146;48.140;16.304;2022-11-24T11:13:50;98953.41;;;6.18;99.47
69855;BME280;57146;48.140;16.304;2022-11-24T11:16:38;98963.88;;;6.18;99.81
69855;BME280;57146;48.140;16.304;2022-11-24T11:19:37;98963.09;;;6.18;99.98
69855;BME280;57146;48.140;16.304;2022-11-24T11:22:30;98942.97;;;6.18;99.83
69855;BME280;57146;48.140;16.304;2022-11-24T11:25:31;98955.78;;;6.20;99.72
69855;BME280;57146;48.140;16.304;2022-11-24T11:31:03;98955.47;;;6.21;100.00
69855;BME280;57146;48.140;16.304;2022-11-24T11:33:56;98958.22;;;6.35;100.00
69855;BME280;57146;48.140;16.304;2022-11-24T11:36:38;98953.59;;;6.27;100.00
69855;BME280;57146;48.140;16.304;2022-11-24T11:39:20;98959.38;;;6.24;100.00
69855;BME280;57146;48.140;16.304;2022-11-24T11:41:51;98954.41;;;6.22;100.00
69855;BME280;57146;48.140;16.304;2022-11-24T11:46:49;98964.06;;;6.27;100.00
69855;BME280;57146;48.140;16.304;2022-11-24T11:49:16;98958.53;;;6.29;100.00
69855;BME280;57146;48.140;16.304;2022-11-24T11:51:55;98956.16;;;6.32;100.00
69855;BME280;57146;48.140;16.304;2022-11-24T11:57:54;98961.13;;;6.34;100.00
69855;BME280;57146;48.140;16.304;2022-11-24T12:00:23;98959.28;;;6.34;100.00
69855;BME280;57146;48.140;16.304;2022-11-24T12:03:04;98965.28;;;6.35;100.00
69855;BME280;57146;48.140;16.304;2022-11-24T12:05:49;98963.44;;;6.35;100.00
69855;BME280;57146;48.140;16.304;2022-11-24T12:11:37;98962.34;;;6.41;100.00
69855;BME280;57146;48.140;16.304;2022-11-24T12:14:24;98959.72;;;6.41;100.00
69855;BME280;57146;48.140;16.304;2022-11-24T12:19:44;98958.38;;;6.44;100.00
69855;BME280;57146;48.140;16.304;2022-11-24T12:22:27;98958.63;;;6.47;100.00
69855;BME280;57146;48.140;16.304;2022-11-24T12:25:32;98962.00;;;6.48;100.00
69855;BME280;57146;48.140;16.304;2022-11-24T12:39:26;98969.50;;;6.55;100.00
69855;BME280;57146;48.140;16.304;2022-11-24T12:45:11;98976.22;;;6.61;100.00
69855;BME280;57146;48.140;16.304;2022-11-24T12:50:26;98977.84;;;6.57;100.00
69855;BME280;57146;48.140;16.304;2022-11-24T12:53:16;98984.13;;;6.56;100.00
69855;BME280;57146;48.140;16.304;2022-11-24T12:55:45;98978.63;;;6.57;100.00
69855;BME280;57146;48.140;16.304;2022-11-24T13:08:51;98980.88;;;6.64;100.00
69855;BME280;57146;48.140;16.304;2022-11-24T13:14:11;98981.88;;;6.68;100.00
69855;BME280;57146;48.140;16.304;2022-11-24T13:22:54;98985.06;;;6.65;100.00
69855;BME280;57146;48.140;16.304;2022-11-24T13:25:23;98981.97;;;6.63;100.00
69855;BME280;57146;48.140;16.304;2022-11-24T13:28:03;98985.63;;;6.62;100.00
69855;BME280;57146;48.140;16.304;2022-11-24T13:46:59;98997.66;;;6.63;100.00
69855;BME280;57146;48.140;16.304;2022-11-24T13:49:39;99010.72;;;6.63;100.00
69855;BME280;57146;48.140;16.304;2022-11-24T14:00:35;99009.72;;;6.59;100.00
69855;BME280;57146;48.140;16.304;2022-11-24T14:03:26;99001.13;;;6.58;100.00
69855;BME280;57146;48.140;16.304;2022-11-24T14:05:55;99010.50;;;6.59;100.00
69855;BME280;57146;48.140;16.304;2022-11-24T14:08:25;99021.22;;;6.58;100.00
69855;BME280;57146;48.140;16.304;2022-11-24T14:10:55;99020.75;;;6.56;100.00
69855;BME280;57146;48.140;16.304;2022-11-24T14:18:36;99018.13;;;6.56;100.00
69855;BME280;57146;48.140;16.304;2022-11-24T14:23:55;99034.94;;;6.50;100.00
69855;BME280;57146;48.140;16.304;2022-11-24T14:26:31;99031.53;;;6.49;100.00
69855;BME280;57146;48.140;16.304;2022-11-24T14:29:13;99031.31;;;6.45;100.00
69855;BME280;57146;48.140;16.304;2022-11-24T14:31:42;99037.09;;;6.42;100.00
69855;BME280;57146;48.140;16.304;2022-11-24T14:34:20;99047.50;;;6.47;100.00
69855;BME280;57146;48.140;16.304;2022-11-24T14:36:48;99043.31;;;6.46;100.00
69855;BME280;57146;48.140;16.304;2022-11-24T14:39:17;99053.84;;;6.41;100.00
69855;BME280;57146;48.140;16.304;2022-11-24T14:42:00;99044.44;;;6.40;100.00
69855;BME280;57146;48.140;16.304;2022-11-24T14:49:53;99042.78;;;6.50;100.00
69855;BME280;57146;48.140;16.304;2022-11-24T14:52:21;99046.69;;;6.52;100.00
69855;BME280;57146;48.140;16.304;2022-11-24T14:54:57;99037.75;;;6.53;99.61
69855;BME280;57146;48.140;16.304;2022-11-24T14:57:43;99042.22;;;6.53;99.69
69855;BME280;57146;48.140;16.304;2022-11-24T15:00:19;99047.44;;;6.53;99.97
69855;BME280;57146;48.140;16.304;2022-11-24T15:03:06;99055.81;;;6.55;100.00
69855;BME280;57146;48.140;16.304;2022-11-24T15:08:17;99063.13;;;6.53;100.00
69855;BME280;57146;48.140;16.304;2022-11-24T15:10:45;99051.91;;;6.52;100.00
69855;BME280;57146;48.140;16.304;2022-11-24T15:13:18;99063.91;;;6.53;100.00
69855;BME280;57146;48.140;16.304;2022-11-24T15:15:58;99064.19;;;6.52;100.00